< Typhoon 196112 1961 Season Typhoon 196114 >
Typhoon 196113 (JUNE)
General InformationTrack Information on Google Maps || Disaster Info.ResourceGoogle EarthGE AnimationAtom FeedGeoJSON
Detalied Best Track (Time Zone = UTC)
Year Month Day Hour Lat. Long. Pressure (hPa) Wind (kt) Class Image Chart
1961 8 1 00 11.5 134.0 1008 0 2 -- Chart
1961 8 1 06 11.9 133.5 1000 0 2 -- Chart
1961 8 1 12 12.3 133.1 998 0 9 -- Chart
1961 8 1 18 12.7 132.6 998 0 9 -- Chart
1961 8 2 00 13.2 132.1 995 0 9 -- Chart
1961 8 2 06 13.8 131.8 995 0 9 -- Chart
1961 8 2 12 14.6 131.1 990 0 9 -- Chart
1961 8 2 18 15.1 130.3 995 0 9 -- Chart
1961 8 3 00 15.4 129.2 995 0 9 -- Chart
1961 8 3 06 16.1 128.5 995 0 9 -- Chart
1961 8 3 12 16.8 127.9 995 0 9 -- Chart
1961 8 3 18 17.5 127.2 995 0 9 -- Chart
1961 8 4 00 17.6 126.4 995 0 9 -- Chart
1961 8 4 06 17.7 125.7 992 0 9 -- Chart
1961 8 4 12 18.0 125.4 992 0 9 -- Chart
1961 8 4 18 18.2 124.9 992 0 9 -- Chart
1961 8 5 00 18.6 124.4 992 0 9 -- Chart
1961 8 5 06 19.2 123.7 992 0 9 -- Chart
1961 8 5 12 19.7 123.0 985 0 9 -- Chart
1961 8 5 18 20.6 122.5 980 0 9 -- Chart
1961 8 6 00 21.1 122.1 975 0 9 -- Chart
1961 8 6 06 21.7 121.8 970 0 9 -- Chart
1961 8 6 12 22.2 121.7 960 0 9 -- Chart
1961 8 6 18 22.6 121.6 960 0 9 -- Chart
1961 8 7 00 22.9 121.6 970 0 9 -- Chart
1961 8 7 06 23.8 121.4 980 0 9 -- Chart
1961 8 7 12 24.4 120.9 985 0 9 -- Chart
1961 8 7 18 24.6 120.0 995 0 9 -- Chart
1961 8 8 00 24.7 119.1 1000 0 9 -- Chart
1961 8 8 06 24.8 117.3 1000 0 2 -- Chart
Japan Meteorological Agency Best Track Data | Correction Date : 1989-06-01
< Typhoon 196112 1961 Season Typhoon 196114 >

Help